Meteo Inđija - METAR stanice u blizini


METAR stanice u blizini

 

LYBE - Beograd / Surčin, Srbija
Ažurirano: 19/08/2018 00:00
Vedro
Vedro
 Pravac vetra ISI
Vetar: ISI 6 km/h
Temperatura: 24°C
Tačka rose: 17°C
Vlažnost: 65%
Pritisak: 1018 hPa
Pregled: Vedro
Vidljivost: greater than 10 km
2018/08/18 22:00 LYBE 182200Z 06003KT CAVOK 24/17 Q1018 NOSIG
LYBT - Beograd / Batajnica, Srbija
Ažurirano: 19/08/2018 00:00
Vedro
Vedro
 Pravac vetra S
Vetar: S 7 km/h
Temperatura: 21°C
Tačka rose: 16°C
Vlažnost: 73%
Pritisak: 1017 hPa
Pregled: Vedro
Vidljivost: greater than 10 km
2018/08/18 22:00 LYBT 182200Z 35004KT CAVOK 21/16 Q1017 NOSIG
LYVR - Vršac, Srbija
Ažurirano: 19/08/2018 00:00
Vedro
Vedro
 Pravac vetra SI
Vetar: SI 4 km/h
Temperatura: 19°C
Tačka rose: 15°C
Vlažnost: 78%
Pritisak: 1018 hPa
Pregled: Vedro
Vidljivost: greater than 10 km
2018/08/18 22:00 LYVR 182200Z 05002KT CAVOK 19/15 Q1018 NOSIG
 
LYKV - Lađevci, Srbija
Ažurirano: 19/08/2018 00:00
Vedro
Vedro
 Pravac vetra ISI
Vetar: ISI 4 km/h
Temperatura: 18°C
Tačka rose: 18°C
Vlažnost: 100%
Pritisak: 1018 hPa
Pregled: Vedro
Vidljivost: greater than 10 km
2018/08/18 22:00 LYKV 182200Z 06002KT CAVOK 18/18 Q1018 NOSIG
LYNI - Niš, Srbija
Ažurirano: 19/08/2018 00:00
Vedro
Vedro
 Pravac vetra calm
Vetar: Tišina
Temperatura: 18°C
Tačka rose: 16°C
Vlažnost: 88%
Pritisak: 1018 hPa
Pregled: Vedro
Vidljivost: greater than 10 km
2018/08/18 22:00 LYNI 182200Z 00000KT CAVOK 18/16 Q1018 NOSIG
BKPR - Priština, Srbija
Ažurirano: 19/08/2018 00:00
Vedro
Vedro
 Pravac vetra varies
Vetar: varies 4 km/h
Temperatura: 19°C
Tačka rose: 13°C
Vlažnost: 68%
Pritisak: 1019 hPa
Pregled: Vedro
Vidljivost: greater than 10 km
2018/08/18 22:00 BKPR 182200Z VRB02KT CAVOK 19/13 Q1019 NOSIG
 
LHPP - Pecs / Pogany, Hungary
Ažurirano: 18/08/2018 19:20
NOT Current

 Pravac vetra varies
Vetar: varies 0 km/h
Temperatura: 25°C
Tačka rose: 14°C
Vlažnost: 51%
Pritisak: 1018 hPa
2018/08/18 17:20 LHPP 181720Z AUTO /////KT //// ////// 25/14 Q1018
LHUD - Szeged, Hungary
Ažurirano: 18/08/2018 23:45
Vedro
Vedro
 Pravac vetra S
Vetar: S 4 km/h
Temperatura: 21°C
Tačka rose: 17°C
Vlažnost: 78%
Pritisak: 1019 hPa
Pregled: Vedro
Vidljivost: greater than 10 km
2018/08/18 21:45 LHUD 182145Z 36002KT CAVOK 21/17 Q1019
LRTR - Timisoara, Romania
Ažurirano: 19/08/2018 00:00
Vedro
Vedro
 Pravac vetra IJI
Vetar: IJI 11 km/h
Temperatura: 19°C
Tačka rose: 16°C
Vlažnost: 83%
Pritisak: 1018 hPa
Pregled: Vedro
Vidljivost: greater than 10 km
2018/08/18 22:00 LRTR 182200Z 11006KT 060V140 CAVOK 19/16 Q1018
 
LRCV - Craiova, Romania
Ažurirano: 19/08/2018 00:00
Vedro
Vedro
 Pravac vetra ISI
Vetar: ISI 13 km/h
Temperatura: 21°C
Tačka rose: 15°C
Vlažnost: 69%
Pritisak: 1018 hPa
Pregled: Vedro
Vidljivost: greater than 10 km
2018/08/18 22:00 LRCV 182200Z 07007KT CAVOK 21/15 Q1018
LBSF - Sofia, Bulgaria
Ažurirano: 19/08/2018 00:00
Vedro
Vedro
 Pravac vetra Z
Vetar: Z 6 km/h
Temperatura: 20°C
Tačka rose: 16°C
Vlažnost: 78%
Pritisak: 1019 hPa
Pregled: Vedro
Vidljivost: greater than 10 km
2018/08/18 22:00 LBSF 182200Z 27003KT 190V290 CAVOK 20/16 Q1019 NOSIG
LWSK - Skoplje, Makedonija
Ažurirano: 19/08/2018 00:30
Vedro
Vedro
 Pravac vetra JI
Vetar: JI 4 km/h
Temperatura: 19°C
Tačka rose: 17°C
Vlažnost: 88%
Pritisak: 1017 hPa
Pregled: Vedro
Vidljivost: greater than 10 km
2018/08/18 22:30 LWSK 182230Z 13002KT CAVOK 19/17 Q1017 NOSIG
 
LYPG - Podgorica, Crna Gora
Ažurirano: 19/08/2018 00:00
Vedro
Vedro
 Pravac vetra S
Vetar: S 9 km/h
Temperatura: 27°C
Heat Index: 27°C
Tačka rose: 14°C
Vlažnost: 45%
Pritisak: 1014 hPa
Pregled: Vedro
Vidljivost: greater than 10 km
2018/08/18 22:00 LYPG 182200Z 35005KT 320V050 CAVOK 27/14 Q1014 NOSIG
LQSA - Sarajevo, Bosna i Hercegovina
Ažurirano: 19/08/2018 00:00
Vedro
Vedro
 Pravac vetra varies
Vetar: varies 2 km/h
Temperatura: 17°C
Tačka rose: 17°C
Vlažnost: 100%
Pritisak: 1020 hPa
Pregled: Vedro
Vidljivost: greater than 10 km
2018/08/18 22:00 LQSA 182200Z VRB01KT CAVOK 17/17 Q1020
LDOS - Osijek, Hrvatksa
Ažurirano: 19/08/2018 00:00
Vedro
Vedro
 Pravac vetra varies
Vetar: varies 2 km/h
Temperatura: 19°C
Tačka rose: 17°C
Vlažnost: 88%
Pritisak: 1018 hPa
Pregled: Vedro
Vidljivost: greater than 10 km
2018/08/18 22:00 LDOS 182200Z VRB01KT CAVOK 19/17 Q1018